This is the latest recevied weather packets stored in our database for station/object DG1GMY-10. If no packets are shown the sender has not sent any weather packets the latest 10 day(s).
| Time | Temp. | Humidity | Pressure | Rain* | Wind** | Luminosity | Snow |
|---|---|---|---|---|---|---|---|
| 1787798188 | 17.78° C | 100% | 1014 hPa | - | - | - | - |
| 1787794588 | 17.78° C | 100% | 1014.5 hPa | - | - | - | - |
| 1787790988 | 18.33° C | 100% | 1014.5 hPa | - | - | - | - |
| 1787787388 | 18.89° C | 100% | 1014.8 hPa | - | - | - | - |
| 1787783788 | 20° C | 95% | 1014.8 hPa | - | - | - | - |
| 1787780188 | 20.56° C | 96% | 1015.1 hPa | - | - | - | - |
| 1787776588 | 21.67° C | 90% | 1015.3 hPa | - | - | - | - |
| 1787772988 | 22.78° C | 79% | 1015.7 hPa | - | - | - | - |
| 1787769388 | 25° C | 63% | 1015.4 hPa | - | - | - | - |
| 1787765788 | 27.78° C | 55% | 1015.5 hPa | - | - | - | - |
| 1787762188 | 31.11° C | 43% | 1015.9 hPa | - | - | - | - |
| 1787758587 | 31.67° C | 39% | 1016.2 hPa | - | - | - | - |
| 1787754987 | 40.56° C | 25% | 1016.7 hPa | - | - | - | - |
| 1787751387 | 36.11° C | 34% | 1017.5 hPa | - | - | - | - |
| 1787747787 | 26.67° C | 60% | 1018.2 hPa | - | - | - | - |
| 1787744187 | 22.22° C | 93% | 1018.6 hPa | - | - | - | - |
| 1787740587 | 20.56° C | 100% | 1019 hPa | - | - | - | - |
| 1787736987 | 21.67° C | 94% | 1019.4 hPa | - | - | - | - |
| 1787733387 | 19.44° C | 100% | 1019.4 hPa | - | - | - | - |
| 1787729787 | 18.33° C | 100% | 1019.3 hPa | - | - | - | - |
| 1787726186 | 17.22° C | 100% | 1018.9 hPa | - | - | - | - |
| 1787722586 | 16.11° C | 100% | 1018.6 hPa | - | - | - | - |
| 1787718986 | 16.11° C | 100% | 1018.5 hPa | - | - | - | - |
| 1787715386 | 16.11° C | 100% | 1018.4 hPa | - | - | - | - |
| 1787711786 | 16.11° C | 100% | 1018 hPa | - | - | - | - |
* Rain since midnight (hover to see other rain measurements)
** Current wind speed in m/s (hover to see current wind gust speed)